sensor_id;sensor_type;location;lat;lon;timestamp;temperature;humidity
15199;DHT22;7700;48.654;9.070;2024-02-28T00:02:18;6.80;99.90
15199;DHT22;7700;48.654;9.070;2024-02-28T00:04:43;6.80;99.90
15199;DHT22;7700;48.654;9.070;2024-02-28T00:07:09;6.90;99.90
15199;DHT22;7700;48.654;9.070;2024-02-28T00:09:35;6.80;99.90
15199;DHT22;7700;48.654;9.070;2024-02-28T00:12:00;6.80;99.90
15199;DHT22;7700;48.654;9.070;2024-02-28T00:14:26;6.80;99.90
15199;DHT22;7700;48.654;9.070;2024-02-28T00:16:51;6.80;99.90
15199;DHT22;7700;48.654;9.070;2024-02-28T00:19:17;6.80;99.90
15199;DHT22;7700;48.654;9.070;2024-02-28T00:21:43;6.90;99.90
15199;DHT22;7700;48.654;9.070;2024-02-28T00:24:10;6.90;99.90
15199;DHT22;7700;48.654;9.070;2024-02-28T00:26:35;6.90;99.90
15199;DHT22;7700;48.654;9.070;2024-02-28T00:29:01;6.90;99.90
15199;DHT22;7700;48.654;9.070;2024-02-28T00:31:27;6.90;99.90
15199;DHT22;7700;48.654;9.070;2024-02-28T00:33:55;6.90;99.90
15199;DHT22;7700;48.654;9.070;2024-02-28T00:36:20;6.90;99.90
15199;DHT22;7700;48.654;9.070;2024-02-28T00:38:46;6.90;99.90
15199;DHT22;7700;48.654;9.070;2024-02-28T00:41:11;6.90;99.90
15199;DHT22;7700;48.654;9.070;2024-02-28T00:43:37;6.90;99.90
15199;DHT22;7700;48.654;9.070;2024-02-28T00:46:03;6.90;99.90
15199;DHT22;7700;48.654;9.070;2024-02-28T00:48:29;6.80;99.90
15199;DHT22;7700;48.654;9.070;2024-02-28T00:50:54;6.80;99.90
15199;DHT22;7700;48.654;9.070;2024-02-28T00:53:20;6.80;99.90
15199;DHT22;7700;48.654;9.070;2024-02-28T00:55:46;6.70;99.90
15199;DHT22;7700;48.654;9.070;2024-02-28T00:58:11;6.70;99.90
15199;DHT22;7700;48.654;9.070;2024-02-28T01:00:37;6.60;99.90
15199;DHT22;7700;48.654;9.070;2024-02-28T01:03:03;6.50;99.90
15199;DHT22;7700;48.654;9.070;2024-02-28T01:05:34;6.50;99.90
15199;DHT22;7700;48.654;9.070;2024-02-28T01:08:00;6.40;99.90
15199;DHT22;7700;48.654;9.070;2024-02-28T01:10:25;6.30;99.90
15199;DHT22;7700;48.654;9.070;2024-02-28T01:12:51;6.30;99.90
15199;DHT22;7700;48.654;9.070;2024-02-28T01:15:16;6.30;99.90
15199;DHT22;7700;48.654;9.070;2024-02-28T01:17:42;6.30;99.90
15199;DHT22;7700;48.654;9.070;2024-02-28T01:20:08;6.30;99.90
15199;DHT22;7700;48.654;9.070;2024-02-28T01:22:34;6.30;99.90
15199;DHT22;7700;48.654;9.070;2024-02-28T01:25:00;6.30;99.90
15199;DHT22;7700;48.654;9.070;2024-02-28T01:27:26;6.30;99.90
15199;DHT22;7700;48.654;9.070;2024-02-28T01:29:51;6.40;99.90
15199;DHT22;7700;48.654;9.070;2024-02-28T01:32:19;6.40;99.90
15199;DHT22;7700;48.654;9.070;2024-02-28T01:34:45;6.40;99.90
15199;DHT22;7700;48.654;9.070;2024-02-28T01:37:11;6.40;99.90
15199;DHT22;7700;48.654;9.070;2024-02-28T01:39:37;6.50;99.90
15199;DHT22;7700;48.654;9.070;2024-02-28T01:42:02;6.50;99.90
15199;DHT22;7700;48.654;9.070;2024-02-28T01:44:28;6.50;99.90
15199;DHT22;7700;48.654;9.070;2024-02-28T01:46:54;6.50;99.90
15199;DHT22;7700;48.654;9.070;2024-02-28T01:49:22;6.50;99.90
15199;DHT22;7700;48.654;9.070;2024-02-28T01:51:47;6.60;99.90
15199;DHT22;7700;48.654;9.070;2024-02-28T01:54:14;6.50;99.90
15199;DHT22;7700;48.654;9.070;2024-02-28T01:56:39;6.50;99.90
15199;DHT22;7700;48.654;9.070;2024-02-28T01:59:06;6.60;99.90
15199;DHT22;7700;48.654;9.070;2024-02-28T02:01:32;6.60;99.90
15199;DHT22;7700;48.654;9.070;2024-02-28T02:03:58;6.70;99.90
15199;DHT22;7700;48.654;9.070;2024-02-28T02:06:24;6.70;99.90
15199;DHT22;7700;48.654;9.070;2024-02-28T02:08:49;6.70;99.90
15199;DHT22;7700;48.654;9.070;2024-02-28T02:11:17;6.70;99.90
15199;DHT22;7700;48.654;9.070;2024-02-28T02:13:51;6.70;99.90
15199;DHT22;7700;48.654;9.070;2024-02-28T02:16:18;6.70;99.90
15199;DHT22;7700;48.654;9.070;2024-02-28T02:18:44;6.70;99.90
15199;DHT22;7700;48.654;9.070;2024-02-28T02:21:11;6.70;99.90
15199;DHT22;7700;48.654;9.070;2024-02-28T02:23:38;6.70;99.90
15199;DHT22;7700;48.654;9.070;2024-02-28T02:26:06;6.80;99.90
15199;DHT22;7700;48.654;9.070;2024-02-28T02:28:32;6.70;99.90
15199;DHT22;7700;48.654;9.070;2024-02-28T02:30:58;6.70;99.90
15199;DHT22;7700;48.654;9.070;2024-02-28T02:33:23;6.70;99.90
15199;DHT22;7700;48.654;9.070;2024-02-28T02:35:49;6.70;99.90
15199;DHT22;7700;48.654;9.070;2024-02-28T02:38:14;6.70;99.90
15199;DHT22;7700;48.654;9.070;2024-02-28T02:40:40;6.70;99.90
15199;DHT22;7700;48.654;9.070;2024-02-28T02:43:06;6.70;99.90
15199;DHT22;7700;48.654;9.070;2024-02-28T02:45:31;6.70;99.90
15199;DHT22;7700;48.654;9.070;2024-02-28T02:47:57;6.70;99.90
15199;DHT22;7700;48.654;9.070;2024-02-28T02:50:22;6.60;99.90
15199;DHT22;7700;48.654;9.070;2024-02-28T02:52:48;6.60;99.90
15199;DHT22;7700;48.654;9.070;2024-02-28T02:55:13;6.60;99.90
15199;DHT22;7700;48.654;9.070;2024-02-28T02:57:40;6.60;99.90
15199;DHT22;7700;48.654;9.070;2024-02-28T03:00:08;6.60;99.90
15199;DHT22;7700;48.654;9.070;2024-02-28T03:02:34;6.60;99.90
15199;DHT22;7700;48.654;9.070;2024-02-28T03:05:00;6.60;99.90
15199;DHT22;7700;48.654;9.070;2024-02-28T03:07:25;6.60;99.90
15199;DHT22;7700;48.654;9.070;2024-02-28T03:09:51;6.60;99.90
15199;DHT22;7700;48.654;9.070;2024-02-28T03:12:16;6.60;99.90
15199;DHT22;7700;48.654;9.070;2024-02-28T03:14:42;6.60;99.90
15199;DHT22;7700;48.654;9.070;2024-02-28T03:17:07;6.60;99.90
15199;DHT22;7700;48.654;9.070;2024-02-28T03:19:33;6.70;99.90
15199;DHT22;7700;48.654;9.070;2024-02-28T03:22:00;6.60;99.90
15199;DHT22;7700;48.654;9.070;2024-02-28T03:24:26;6.70;99.90
15199;DHT22;7700;48.654;9.070;2024-02-28T03:26:51;6.70;99.90
15199;DHT22;7700;48.654;9.070;2024-02-28T03:29:17;6.60;99.90
15199;DHT22;7700;48.654;9.070;2024-02-28T03:31:42;6.60;99.90
15199;DHT22;7700;48.654;9.070;2024-02-28T03:34:08;6.60;99.90
15199;DHT22;7700;48.654;9.070;2024-02-28T03:36:34;6.70;99.90
15199;DHT22;7700;48.654;9.070;2024-02-28T03:39:00;6.70;99.90
15199;DHT22;7700;48.654;9.070;2024-02-28T03:41:26;6.70;99.90
15199;DHT22;7700;48.654;9.070;2024-02-28T03:43:51;6.70;99.90
15199;DHT22;7700;48.654;9.070;2024-02-28T03:46:16;6.60;99.90
15199;DHT22;7700;48.654;9.070;2024-02-28T03:48:42;6.70;99.90
15199;DHT22;7700;48.654;9.070;2024-02-28T03:51:08;6.70;99.90
15199;DHT22;7700;48.654;9.070;2024-02-28T03:53:33;6.60;99.90
15199;DHT22;7700;48.654;9.070;2024-02-28T03:55:59;6.60;99.90
15199;DHT22;7700;48.654;9.070;2024-02-28T03:58:24;6.60;99.90
15199;DHT22;7700;48.654;9.070;2024-02-28T04:00:50;6.60;99.90
15199;DHT22;7700;48.654;9.070;2024-02-28T04:03:15;6.60;99.90
15199;DHT22;7700;48.654;9.070;2024-02-28T04:05:42;6.60;99.90
15199;DHT22;7700;48.654;9.070;2024-02-28T04:08:07;6.60;99.90
15199;DHT22;7700;48.654;9.070;2024-02-28T04:10:33;6.50;99.90
15199;DHT22;7700;48.654;9.070;2024-02-28T04:12:58;6.50;99.90
15199;DHT22;7700;48.654;9.070;2024-02-28T04:15:24;6.50;99.90
15199;DHT22;7700;48.654;9.070;2024-02-28T04:17:51;6.50;99.90
15199;DHT22;7700;48.654;9.070;2024-02-28T04:20:17;6.50;99.90
15199;DHT22;7700;48.654;9.070;2024-02-28T04:22:43;6.50;99.90
15199;DHT22;7700;48.654;9.070;2024-02-28T04:25:09;6.50;99.90
15199;DHT22;7700;48.654;9.070;2024-02-28T04:27:36;6.50;99.90
15199;DHT22;7700;48.654;9.070;2024-02-28T04:30:01;6.50;99.90
15199;DHT22;7700;48.654;9.070;2024-02-28T04:32:27;6.40;99.90
15199;DHT22;7700;48.654;9.070;2024-02-28T04:34:52;6.40;99.90
15199;DHT22;7700;48.654;9.070;2024-02-28T04:37:18;6.40;99.90
15199;DHT22;7700;48.654;9.070;2024-02-28T04:39:44;6.40;99.90
15199;DHT22;7700;48.654;9.070;2024-02-28T04:42:09;6.40;99.90
15199;DHT22;7700;48.654;9.070;2024-02-28T04:44:35;6.40;99.90
15199;DHT22;7700;48.654;9.070;2024-02-28T04:47:01;6.40;99.90
15199;DHT22;7700;48.654;9.070;2024-02-28T04:49:27;6.40;99.90
15199;DHT22;7700;48.654;9.070;2024-02-28T04:51:53;6.30;99.90
15199;DHT22;7700;48.654;9.070;2024-02-28T04:54:18;6.30;99.90
15199;DHT22;7700;48.654;9.070;2024-02-28T04:56:44;6.40;99.90
15199;DHT22;7700;48.654;9.070;2024-02-28T04:59:11;6.40;99.90
15199;DHT22;7700;48.654;9.070;2024-02-28T05:01:38;6.40;99.90
15199;DHT22;7700;48.654;9.070;2024-02-28T05:04:06;6.40;99.90
15199;DHT22;7700;48.654;9.070;2024-02-28T05:06:32;6.30;99.90
15199;DHT22;7700;48.654;9.070;2024-02-28T05:08:57;6.40;99.90
15199;DHT22;7700;48.654;9.070;2024-02-28T05:11:23;6.30;99.90
15199;DHT22;7700;48.654;9.070;2024-02-28T05:13:48;6.30;99.90
15199;DHT22;7700;48.654;9.070;2024-02-28T05:16:15;6.30;99.90
15199;DHT22;7700;48.654;9.070;2024-02-28T05:18:40;6.30;99.90
15199;DHT22;7700;48.654;9.070;2024-02-28T05:21:06;6.30;99.90
15199;DHT22;7700;48.654;9.070;2024-02-28T05:23:31;6.30;99.90
15199;DHT22;7700;48.654;9.070;2024-02-28T05:25:57;6.30;99.90
15199;DHT22;7700;48.654;9.070;2024-02-28T05:28:23;6.30;99.90
15199;DHT22;7700;48.654;9.070;2024-02-28T05:30:49;6.20;99.90
15199;DHT22;7700;48.654;9.070;2024-02-28T05:33:15;6.20;99.90
15199;DHT22;7700;48.654;9.070;2024-02-28T05:35:40;6.20;99.90
15199;DHT22;7700;48.654;9.070;2024-02-28T05:38:06;6.20;99.90
15199;DHT22;7700;48.654;9.070;2024-02-28T05:40:31;6.30;99.90
15199;DHT22;7700;48.654;9.070;2024-02-28T05:42:57;6.20;99.90
15199;DHT22;7700;48.654;9.070;2024-02-28T05:45:22;6.20;99.90
15199;DHT22;7700;48.654;9.070;2024-02-28T05:47:48;6.20;99.90
15199;DHT22;7700;48.654;9.070;2024-02-28T05:50:14;6.20;99.90
15199;DHT22;7700;48.654;9.070;2024-02-28T05:52:42;6.20;99.90
15199;DHT22;7700;48.654;9.070;2024-02-28T05:55:08;6.10;99.90
15199;DHT22;7700;48.654;9.070;2024-02-28T05:57:33;6.20;99.90
15199;DHT22;7700;48.654;9.070;2024-02-28T05:59:59;6.20;99.90
15199;DHT22;7700;48.654;9.070;2024-02-28T06:02:25;6.20;99.90
15199;DHT22;7700;48.654;9.070;2024-02-28T06:04:50;6.20;99.90
15199;DHT22;7700;48.654;9.070;2024-02-28T06:07:16;6.20;99.90
15199;DHT22;7700;48.654;9.070;2024-02-28T06:09:41;6.20;99.90
15199;DHT22;7700;48.654;9.070;2024-02-28T06:12:07;6.30;99.90
15199;DHT22;7700;48.654;9.070;2024-02-28T06:14:32;6.30;99.90
15199;DHT22;7700;48.654;9.070;2024-02-28T06:16:58;6.30;99.90
15199;DHT22;7700;48.654;9.070;2024-02-28T06:19:24;6.30;99.90
15199;DHT22;7700;48.654;9.070;2024-02-28T06:21:49;6.20;99.90
15199;DHT22;7700;48.654;9.070;2024-02-28T06:24:15;6.30;99.90
15199;DHT22;7700;48.654;9.070;2024-02-28T06:26:41;6.30;99.90
15199;DHT22;7700;48.654;9.070;2024-02-28T06:29:08;6.30;99.90
15199;DHT22;7700;48.654;9.070;2024-02-28T06:31:34;6.20;99.90
15199;DHT22;7700;48.654;9.070;2024-02-28T06:33:59;6.20;99.90
15199;DHT22;7700;48.654;9.070;2024-02-28T06:36:25;6.20;99.90
15199;DHT22;7700;48.654;9.070;2024-02-28T06:38:50;6.30;99.90
15199;DHT22;7700;48.654;9.070;2024-02-28T06:41:16;6.20;99.90
15199;DHT22;7700;48.654;9.070;2024-02-28T06:43:42;6.30;99.90
15199;DHT22;7700;48.654;9.070;2024-02-28T06:46:07;6.30;99.90
15199;DHT22;7700;48.654;9.070;2024-02-28T06:48:33;6.30;99.90
15199;DHT22;7700;48.654;9.070;2024-02-28T06:50:58;6.40;99.90
15199;DHT22;7700;48.654;9.070;2024-02-28T06:53:24;6.30;99.90
15199;DHT22;7700;48.654;9.070;2024-02-28T06:55:50;6.30;99.90
15199;DHT22;7700;48.654;9.070;2024-02-28T06:58:16;6.30;99.90
15199;DHT22;7700;48.654;9.070;2024-02-28T07:00:41;6.30;99.90
15199;DHT22;7700;48.654;9.070;2024-02-28T07:03:07;6.90;99.90
15199;DHT22;7700;48.654;9.070;2024-02-28T07:05:32;7.50;99.90
15199;DHT22;7700;48.654;9.070;2024-02-28T07:07:59;7.50;99.90
15199;DHT22;7700;48.654;9.070;2024-02-28T07:10:25;7.30;99.90
15199;DHT22;7700;48.654;9.070;2024-02-28T07:12:50;7.20;99.90
15199;DHT22;7700;48.654;9.070;2024-02-28T07:15:16;7.00;99.90
15199;DHT22;7700;48.654;9.070;2024-02-28T07:17:44;6.90;99.90
15199;DHT22;7700;48.654;9.070;2024-02-28T07:20:10;6.80;99.90
15199;DHT22;7700;48.654;9.070;2024-02-28T07:22:37;6.70;99.90
15199;DHT22;7700;48.654;9.070;2024-02-28T07:25:02;6.60;99.90
15199;DHT22;7700;48.654;9.070;2024-02-28T07:27:29;6.60;99.90
15199;DHT22;7700;48.654;9.070;2024-02-28T07:29:55;6.60;99.90
15199;DHT22;7700;48.654;9.070;2024-02-28T07:32:20;6.60;99.90
15199;DHT22;7700;48.654;9.070;2024-02-28T07:34:46;6.60;99.90
15199;DHT22;7700;48.654;9.070;2024-02-28T07:37:11;6.70;99.90
15199;DHT22;7700;48.654;9.070;2024-02-28T07:39:37;6.70;99.90
15199;DHT22;7700;48.654;9.070;2024-02-28T07:42:03;6.70;99.90
15199;DHT22;7700;48.654;9.070;2024-02-28T07:44:29;6.70;99.90
15199;DHT22;7700;48.654;9.070;2024-02-28T07:46:59;6.80;99.90
15199;DHT22;7700;48.654;9.070;2024-02-28T07:49:25;6.80;99.90
15199;DHT22;7700;48.654;9.070;2024-02-28T07:51:51;6.80;99.90
15199;DHT22;7700;48.654;9.070;2024-02-28T07:54:16;6.80;99.90
15199;DHT22;7700;48.654;9.070;2024-02-28T07:56:43;6.80;99.90
15199;DHT22;7700;48.654;9.070;2024-02-28T07:59:09;6.80;99.90
15199;DHT22;7700;48.654;9.070;2024-02-28T08:01:34;6.80;99.90
15199;DHT22;7700;48.654;9.070;2024-02-28T08:04:00;6.80;99.90
15199;DHT22;7700;48.654;9.070;2024-02-28T08:06:27;6.90;99.90
15199;DHT22;7700;48.654;9.070;2024-02-28T08:08:52;6.80;99.90
15199;DHT22;7700;48.654;9.070;2024-02-28T08:11:18;6.80;99.90
15199;DHT22;7700;48.654;9.070;2024-02-28T08:13:44;6.80;99.90
15199;DHT22;7700;48.654;9.070;2024-02-28T08:16:10;6.80;99.90
15199;DHT22;7700;48.654;9.070;2024-02-28T08:18:36;6.80;99.90
15199;DHT22;7700;48.654;9.070;2024-02-28T08:21:01;6.80;99.90
15199;DHT22;7700;48.654;9.070;2024-02-28T08:23:31;6.90;99.90
15199;DHT22;7700;48.654;9.070;2024-02-28T08:25:56;6.80;99.90
15199;DHT22;7700;48.654;9.070;2024-02-28T08:28:22;6.80;99.90
15199;DHT22;7700;48.654;9.070;2024-02-28T08:30:48;6.80;99.90
15199;DHT22;7700;48.654;9.070;2024-02-28T08:33:14;6.90;99.90
15199;DHT22;7700;48.654;9.070;2024-02-28T08:35:40;6.90;99.90
15199;DHT22;7700;48.654;9.070;2024-02-28T08:38:06;6.80;99.90
15199;DHT22;7700;48.654;9.070;2024-02-28T08:40:31;6.80;99.90
15199;DHT22;7700;48.654;9.070;2024-02-28T08:42:57;6.80;99.90
15199;DHT22;7700;48.654;9.070;2024-02-28T08:45:23;6.80;99.90
15199;DHT22;7700;48.654;9.070;2024-02-28T08:47:48;6.80;99.90
15199;DHT22;7700;48.654;9.070;2024-02-28T08:50:14;6.80;99.90
15199;DHT22;7700;48.654;9.070;2024-02-28T08:52:39;6.80;99.90
15199;DHT22;7700;48.654;9.070;2024-02-28T08:55:05;6.80;99.90
15199;DHT22;7700;48.654;9.070;2024-02-28T08:57:31;6.90;99.90
15199;DHT22;7700;48.654;9.070;2024-02-28T08:59:57;7.00;99.90
15199;DHT22;7700;48.654;9.070;2024-02-28T09:02:22;7.00;99.90
15199;DHT22;7700;48.654;9.070;2024-02-28T09:04:48;7.00;99.90
15199;DHT22;7700;48.654;9.070;2024-02-28T09:07:17;7.00;99.90
15199;DHT22;7700;48.654;9.070;2024-02-28T09:09:46;7.10;99.90
15199;DHT22;7700;48.654;9.070;2024-02-28T09:12:12;7.00;99.90
15199;DHT22;7700;48.654;9.070;2024-02-28T09:14:38;7.00;99.90
15199;DHT22;7700;48.654;9.070;2024-02-28T09:17:04;7.00;99.90
15199;DHT22;7700;48.654;9.070;2024-02-28T09:19:30;7.00;99.90
15199;DHT22;7700;48.654;9.070;2024-02-28T09:21:56;7.00;99.90
15199;DHT22;7700;48.654;9.070;2024-02-28T09:24:26;7.10;99.90
15199;DHT22;7700;48.654;9.070;2024-02-28T09:26:51;7.10;99.90
15199;DHT22;7700;48.654;9.070;2024-02-28T09:29:17;7.20;99.90
15199;DHT22;7700;48.654;9.070;2024-02-28T09:31:42;7.20;99.90
15199;DHT22;7700;48.654;9.070;2024-02-28T09:34:08;7.30;99.90
15199;DHT22;7700;48.654;9.070;2024-02-28T09:36:45;7.30;99.90
15199;DHT22;7700;48.654;9.070;2024-02-28T09:39:14;7.40;99.90
15199;DHT22;7700;48.654;9.070;2024-02-28T09:41:41;7.40;99.90
15199;DHT22;7700;48.654;9.070;2024-02-28T09:44:07;7.50;99.90
15199;DHT22;7700;48.654;9.070;2024-02-28T09:46:33;7.50;99.90
15199;DHT22;7700;48.654;9.070;2024-02-28T09:49:05;7.60;99.90
15199;DHT22;7700;48.654;9.070;2024-02-28T09:51:33;7.60;99.90
15199;DHT22;7700;48.654;9.070;2024-02-28T09:54:01;7.80;99.90
15199;DHT22;7700;48.654;9.070;2024-02-28T09:56:27;7.80;99.90
15199;DHT22;7700;48.654;9.070;2024-02-28T09:58:54;7.80;99.90
15199;DHT22;7700;48.654;9.070;2024-02-28T10:03:30;7.70;99.90
15199;DHT22;7700;48.654;9.070;2024-02-28T10:05:56;7.70;99.90
15199;DHT22;7700;48.654;9.070;2024-02-28T10:08:21;7.70;99.90
15199;DHT22;7700;48.654;9.070;2024-02-28T10:10:48;7.70;99.90
15199;DHT22;7700;48.654;9.070;2024-02-28T10:13:17;7.80;99.90
15199;DHT22;7700;48.654;9.070;2024-02-28T10:15:42;7.80;99.90
15199;DHT22;7700;48.654;9.070;2024-02-28T10:18:08;7.80;99.90
15199;DHT22;7700;48.654;9.070;2024-02-28T10:20:34;7.90;99.90
15199;DHT22;7700;48.654;9.070;2024-02-28T10:23:04;7.90;99.90
15199;DHT22;7700;48.654;9.070;2024-02-28T10:25:30;7.90;99.90
15199;DHT22;7700;48.654;9.070;2024-02-28T10:28:00;8.00;99.90
15199;DHT22;7700;48.654;9.070;2024-02-28T10:30:26;8.10;99.90
15199;DHT22;7700;48.654;9.070;2024-02-28T10:32:51;8.10;99.90
15199;DHT22;7700;48.654;9.070;2024-02-28T10:35:17;8.10;99.90
15199;DHT22;7700;48.654;9.070;2024-02-28T10:37:51;8.10;99.90
15199;DHT22;7700;48.654;9.070;2024-02-28T10:40:17;8.30;99.90
15199;DHT22;7700;48.654;9.070;2024-02-28T10:42:43;8.30;99.90
15199;DHT22;7700;48.654;9.070;2024-02-28T10:45:12;8.20;99.90
15199;DHT22;7700;48.654;9.070;2024-02-28T10:47:38;8.20;99.90
15199;DHT22;7700;48.654;9.070;2024-02-28T10:50:04;8.30;99.90
15199;DHT22;7700;48.654;9.070;2024-02-28T10:52:33;8.30;99.90
15199;DHT22;7700;48.654;9.070;2024-02-28T10:54:59;8.30;99.90
15199;DHT22;7700;48.654;9.070;2024-02-28T10:57:27;8.30;99.90
15199;DHT22;7700;48.654;9.070;2024-02-28T10:59:55;8.40;99.90
15199;DHT22;7700;48.654;9.070;2024-02-28T11:02:22;8.50;99.90
15199;DHT22;7700;48.654;9.070;2024-02-28T11:04:54;8.50;99.90
15199;DHT22;7700;48.654;9.070;2024-02-28T11:07:20;8.50;99.90
15199;DHT22;7700;48.654;9.070;2024-02-28T11:09:47;8.50;99.90
15199;DHT22;7700;48.654;9.070;2024-02-28T11:12:29;8.50;99.90
15199;DHT22;7700;48.654;9.070;2024-02-28T11:14:58;8.50;99.90
15199;DHT22;7700;48.654;9.070;2024-02-28T11:17:28;8.60;99.90
15199;DHT22;7700;48.654;9.070;2024-02-28T11:19:55;8.70;99.90
15199;DHT22;7700;48.654;9.070;2024-02-28T11:22:20;8.80;99.90
15199;DHT22;7700;48.654;9.070;2024-02-28T11:24:47;8.80;99.90
15199;DHT22;7700;48.654;9.070;2024-02-28T11:27:14;8.70;99.90
15199;DHT22;7700;48.654;9.070;2024-02-28T11:29:39;8.60;99.90
15199;DHT22;7700;48.654;9.070;2024-02-28T11:32:06;8.50;99.90
15199;DHT22;7700;48.654;9.070;2024-02-28T11:34:31;8.50;99.90
15199;DHT22;7700;48.654;9.070;2024-02-28T11:36:57;8.40;99.90
15199;DHT22;7700;48.654;9.070;2024-02-28T11:39:24;8.30;99.90
15199;DHT22;7700;48.654;9.070;2024-02-28T11:41:50;8.30;99.90
15199;DHT22;7700;48.654;9.070;2024-02-28T11:44:16;8.40;99.90
15199;DHT22;7700;48.654;9.070;2024-02-28T11:46:45;8.50;99.90
15199;DHT22;7700;48.654;9.070;2024-02-28T11:49:12;8.50;99.90
15199;DHT22;7700;48.654;9.070;2024-02-28T11:51:40;8.40;99.90
15199;DHT22;7700;48.654;9.070;2024-02-28T11:54:07;8.30;99.90
15199;DHT22;7700;48.654;9.070;2024-02-28T11:56:33;8.30;99.90
15199;DHT22;7700;48.654;9.070;2024-02-28T11:58:58;8.30;99.90
15199;DHT22;7700;48.654;9.070;2024-02-28T12:01:41;8.30;99.90
15199;DHT22;7700;48.654;9.070;2024-02-28T12:04:09;8.40;99.90
15199;DHT22;7700;48.654;9.070;2024-02-28T12:06:36;8.40;99.90
15199;DHT22;7700;48.654;9.070;2024-02-28T12:09:09;8.50;99.90
15199;DHT22;7700;48.654;9.070;2024-02-28T12:11:36;8.50;99.90
15199;DHT22;7700;48.654;9.070;2024-02-28T12:14:06;8.40;99.90
15199;DHT22;7700;48.654;9.070;2024-02-28T12:16:40;8.40;99.90
15199;DHT22;7700;48.654;9.070;2024-02-28T12:19:12;8.30;99.90
15199;DHT22;7700;48.654;9.070;2024-02-28T12:21:40;8.30;99.90
15199;DHT22;7700;48.654;9.070;2024-02-28T12:24:10;8.30;99.90
15199;DHT22;7700;48.654;9.070;2024-02-28T12:26:37;8.30;99.90
15199;DHT22;7700;48.654;9.070;2024-02-28T12:29:02;8.30;99.90
15199;DHT22;7700;48.654;9.070;2024-02-28T12:31:28;8.30;99.90
15199;DHT22;7700;48.654;9.070;2024-02-28T12:33:54;8.50;99.90
15199;DHT22;7700;48.654;9.070;2024-02-28T12:36:20;8.40;99.90
15199;DHT22;7700;48.654;9.070;2024-02-28T12:38:46;8.40;99.90
15199;DHT22;7700;48.654;9.070;2024-02-28T12:41:12;8.40;99.90
15199;DHT22;7700;48.654;9.070;2024-02-28T12:43:38;8.40;99.90
15199;DHT22;7700;48.654;9.070;2024-02-28T12:46:04;8.40;99.90
15199;DHT22;7700;48.654;9.070;2024-02-28T12:48:31;8.40;99.90
15199;DHT22;7700;48.654;9.070;2024-02-28T12:50:57;8.40;99.90
15199;DHT22;7700;48.654;9.070;2024-02-28T12:53:22;8.50;99.90
15199;DHT22;7700;48.654;9.070;2024-02-28T12:55:48;8.50;99.90
15199;DHT22;7700;48.654;9.070;2024-02-28T12:58:14;8.50;99.90
15199;DHT22;7700;48.654;9.070;2024-02-28T13:00:39;8.50;99.90
15199;DHT22;7700;48.654;9.070;2024-02-28T13:03:05;8.50;99.90
15199;DHT22;7700;48.654;9.070;2024-02-28T13:05:32;8.60;99.90
15199;DHT22;7700;48.654;9.070;2024-02-28T13:07:57;8.60;99.90
15199;DHT22;7700;48.654;9.070;2024-02-28T13:10:23;8.50;99.90
15199;DHT22;7700;48.654;9.070;2024-02-28T13:12:49;8.60;99.90
15199;DHT22;7700;48.654;9.070;2024-02-28T13:15:14;8.50;99.90
15199;DHT22;7700;48.654;9.070;2024-02-28T13:17:40;8.50;99.90
15199;DHT22;7700;48.654;9.070;2024-02-28T13:20:07;8.50;99.90
15199;DHT22;7700;48.654;9.070;2024-02-28T13:22:33;8.40;99.90
15199;DHT22;7700;48.654;9.070;2024-02-28T13:24:58;8.30;99.90
15199;DHT22;7700;48.654;9.070;2024-02-28T13:27:24;8.30;99.90
15199;DHT22;7700;48.654;9.070;2024-02-28T13:29:50;8.30;99.90
15199;DHT22;7700;48.654;9.070;2024-02-28T13:32:16;8.30;99.90
15199;DHT22;7700;48.654;9.070;2024-02-28T13:34:41;8.20;99.90
15199;DHT22;7700;48.654;9.070;2024-02-28T13:37:07;8.20;99.90
15199;DHT22;7700;48.654;9.070;2024-02-28T13:39:32;8.20;99.90
15199;DHT22;7700;48.654;9.070;2024-02-28T13:41:59;8.20;99.90
15199;DHT22;7700;48.654;9.070;2024-02-28T13:44:25;8.10;99.90
15199;DHT22;7700;48.654;9.070;2024-02-28T13:46:53;8.10;99.90
15199;DHT22;7700;48.654;9.070;2024-02-28T13:49:19;8.10;99.90
15199;DHT22;7700;48.654;9.070;2024-02-28T13:51:45;8.00;99.90
15199;DHT22;7700;48.654;9.070;2024-02-28T13:54:11;8.00;99.90
15199;DHT22;7700;48.654;9.070;2024-02-28T13:56:37;7.90;99.90
15199;DHT22;7700;48.654;9.070;2024-02-28T13:59:03;7.90;99.90
15199;DHT22;7700;48.654;9.070;2024-02-28T14:01:28;7.90;99.90
15199;DHT22;7700;48.654;9.070;2024-02-28T14:03:54;7.90;99.90
15199;DHT22;7700;48.654;9.070;2024-02-28T14:06:20;7.80;99.90
15199;DHT22;7700;48.654;9.070;2024-02-28T14:08:45;7.90;99.90
15199;DHT22;7700;48.654;9.070;2024-02-28T14:11:11;8.00;99.90
15199;DHT22;7700;48.654;9.070;2024-02-28T14:13:37;8.00;99.90
15199;DHT22;7700;48.654;9.070;2024-02-28T14:16:05;8.10;99.90
15199;DHT22;7700;48.654;9.070;2024-02-28T14:18:30;8.00;99.90
15199;DHT22;7700;48.654;9.070;2024-02-28T14:20:56;8.10;99.90
15199;DHT22;7700;48.654;9.070;2024-02-28T14:23:21;8.00;99.90
15199;DHT22;7700;48.654;9.070;2024-02-28T14:25:47;8.00;99.90
15199;DHT22;7700;48.654;9.070;2024-02-28T14:28:13;8.00;99.90
15199;DHT22;7700;48.654;9.070;2024-02-28T14:30:38;8.00;99.90
15199;DHT22;7700;48.654;9.070;2024-02-28T14:33:04;8.00;99.90
15199;DHT22;7700;48.654;9.070;2024-02-28T14:35:29;8.00;99.90
15199;DHT22;7700;48.654;9.070;2024-02-28T14:37:55;7.90;99.90
15199;DHT22;7700;48.654;9.070;2024-02-28T14:40:20;7.90;99.90
15199;DHT22;7700;48.654;9.070;2024-02-28T14:42:46;8.00;99.90
15199;DHT22;7700;48.654;9.070;2024-02-28T14:45:13;7.90;99.90
15199;DHT22;7700;48.654;9.070;2024-02-28T14:47:42;7.90;99.90
15199;DHT22;7700;48.654;9.070;2024-02-28T14:50:08;7.80;99.90
15199;DHT22;7700;48.654;9.070;2024-02-28T14:52:35;7.80;99.90
15199;DHT22;7700;48.654;9.070;2024-02-28T14:55:01;7.80;99.90
15199;DHT22;7700;48.654;9.070;2024-02-28T14:57:27;7.80;99.90
15199;DHT22;7700;48.654;9.070;2024-02-28T14:59:52;7.80;99.90
15199;DHT22;7700;48.654;9.070;2024-02-28T15:02:18;7.70;99.90
15199;DHT22;7700;48.654;9.070;2024-02-28T15:04:44;7.70;99.90
15199;DHT22;7700;48.654;9.070;2024-02-28T15:07:10;7.80;99.90
15199;DHT22;7700;48.654;9.070;2024-02-28T15:09:36;7.80;99.90
15199;DHT22;7700;48.654;9.070;2024-02-28T15:12:02;7.80;99.90
15199;DHT22;7700;48.654;9.070;2024-02-28T15:14:27;7.70;99.90
15199;DHT22;7700;48.654;9.070;2024-02-28T15:16:53;7.60;99.90
15199;DHT22;7700;48.654;9.070;2024-02-28T15:19:21;7.60;99.90
15199;DHT22;7700;48.654;9.070;2024-02-28T15:21:47;7.60;99.90
15199;DHT22;7700;48.654;9.070;2024-02-28T15:24:12;7.70;99.90
15199;DHT22;7700;48.654;9.070;2024-02-28T15:26:39;7.70;99.90
15199;DHT22;7700;48.654;9.070;2024-02-28T15:29:05;7.70;99.90
15199;DHT22;7700;48.654;9.070;2024-02-28T15:31:30;7.70;99.90
15199;DHT22;7700;48.654;9.070;2024-02-28T15:33:56;7.70;99.90
15199;DHT22;7700;48.654;9.070;2024-02-28T15:36:21;7.70;99.90
15199;DHT22;7700;48.654;9.070;2024-02-28T15:38:47;7.70;99.90
15199;DHT22;7700;48.654;9.070;2024-02-28T15:41:12;7.60;99.90
15199;DHT22;7700;48.654;9.070;2024-02-28T15:43:38;7.60;99.90
15199;DHT22;7700;48.654;9.070;2024-02-28T15:46:04;7.60;99.90
15199;DHT22;7700;48.654;9.070;2024-02-28T15:48:30;7.60;99.90
15199;DHT22;7700;48.654;9.070;2024-02-28T15:50:55;7.60;99.90
15199;DHT22;7700;48.654;9.070;2024-02-28T15:53:21;7.60;99.90
15199;DHT22;7700;48.654;9.070;2024-02-28T15:55:46;7.60;99.90
15199;DHT22;7700;48.654;9.070;2024-02-28T15:58:13;7.60;99.90